createdAt,value
2023-04-15T00:01:06.020Z,57.50
2023-04-15T00:03:34.711Z,57.58
2023-04-15T00:06:02.523Z,57.99
2023-04-15T00:08:31.206Z,58.83
2023-04-15T00:11:05.726Z,58.07
2023-04-15T00:13:34.319Z,58.89
2023-04-15T00:16:02.197Z,59.11
2023-04-15T00:18:32.963Z,59.43
2023-04-15T00:21:00.286Z,59.64
2023-04-15T00:23:28.107Z,60.25
2023-04-15T00:25:55.289Z,60.70
2023-04-15T00:28:22.474Z,60.75
2023-04-15T00:30:50.262Z,60.70
2023-04-15T00:33:17.785Z,60.69
2023-04-15T00:35:45.094Z,61.62
2023-04-15T00:38:12.312Z,61.49
2023-04-15T00:40:39.809Z,61.37
2023-04-15T00:43:07.188Z,62.19
2023-04-15T00:45:34.272Z,62.08
2023-04-15T00:48:01.868Z,62.75
2023-04-15T00:50:28.932Z,63.54
2023-04-15T00:52:56.166Z,63.09
2023-04-15T00:55:23.714Z,63.68
2023-04-15T00:57:51.187Z,62.80
2023-04-15T01:00:18.336Z,63.19
2023-04-15T01:02:46.742Z,63.73
2023-04-15T01:05:17.304Z,63.81
2023-04-15T01:07:44.363Z,63.79
2023-04-15T01:10:12.124Z,63.35
2023-04-15T01:12:39.671Z,64.13
2023-04-15T01:15:09.586Z,64.62
2023-04-15T01:17:37.427Z,64.14
2023-04-15T01:20:10.657Z,64.16
2023-04-15T01:22:38.518Z,64.08
2023-04-15T01:25:15.329Z,64.04
2023-04-15T01:27:45.410Z,65.13
2023-04-15T01:30:12.795Z,64.63
2023-04-15T01:32:40.077Z,64.87
2023-04-15T01:35:27.136Z,64.93
2023-04-15T01:37:55.236Z,64.90
2023-04-15T01:40:22.901Z,65.01
2023-04-15T01:42:49.854Z,65.44
2023-04-15T01:45:17.579Z,65.70
2023-04-15T01:47:45.538Z,65.26
2023-04-15T01:50:13.162Z,65.00
2023-04-15T01:52:40.340Z,65.04
2023-04-15T01:55:09.111Z,65.67
2023-04-15T01:57:37.637Z,64.93
2023-04-15T02:00:07.681Z,65.60
2023-04-15T02:02:40.657Z,65.51
2023-04-15T02:05:08.721Z,65.08
2023-04-15T02:07:37.974Z,65.76
2023-04-15T02:10:06.421Z,65.40
2023-04-15T02:12:36.936Z,65.82
2023-04-15T02:15:04.559Z,65.79
2023-04-15T02:17:35.822Z,65.77
2023-04-15T02:20:08.771Z,66.34
2023-04-15T02:22:35.968Z,66.37
2023-04-15T02:25:03.242Z,66.69
2023-04-15T02:27:32.823Z,66.63
2023-04-15T02:29:59.845Z,67.40
2023-04-15T02:32:26.857Z,67.20
2023-04-15T02:34:55.454Z,67.14
2023-04-15T02:37:23.210Z,67.02
2023-04-15T02:39:50.715Z,66.95
2023-04-15T02:42:18.778Z,67.10
2023-04-15T02:44:45.758Z,66.82
2023-04-15T02:47:12.791Z,66.48
2023-04-15T02:49:40.372Z,66.60
2023-04-15T02:52:07.913Z,66.25
2023-04-15T02:54:35.018Z,66.37
2023-04-15T02:57:02.354Z,66.26
2023-04-15T02:59:29.703Z,66.65
2023-04-15T03:02:00.984Z,66.70
2023-04-15T03:04:30.178Z,66.97
2023-04-15T03:06:57.371Z,66.43
2023-04-15T03:09:25.226Z,67.07
2023-04-15T03:11:54.725Z,67.25
2023-04-15T03:14:22.507Z,66.51
2023-04-15T03:16:50.733Z,66.74
2023-04-15T03:19:18.958Z,66.87
2023-04-15T03:21:46.130Z,67.09
2023-04-15T03:24:14.130Z,67.27
2023-04-15T03:26:41.288Z,66.79
2023-04-15T03:29:14.744Z,67.16
2023-04-15T03:31:42.148Z,67.08
2023-04-15T03:34:09.182Z,67.87
2023-04-15T03:36:36.996Z,68.50
2023-04-15T03:39:04.416Z,68.81
2023-04-15T03:41:32.924Z,68.59
2023-04-15T03:44:00.210Z,70.17
2023-04-15T03:46:27.182Z,70.37
2023-04-15T03:48:54.684Z,70.70
2023-04-15T03:51:21.686Z,70.25
2023-04-15T03:53:48.666Z,69.41
2023-04-15T03:56:15.966Z,69.49
2023-04-15T03:58:42.953Z,69.44
2023-04-15T04:01:10.043Z,69.78
2023-04-15T04:03:37.973Z,69.68
2023-04-15T04:06:05.059Z,69.87
2023-04-15T04:08:32.016Z,69.57
2023-04-15T04:11:01.127Z,70.26
2023-04-15T04:13:29.187Z,70.21
2023-04-15T04:15:56.280Z,70.15
2023-04-15T04:18:23.483Z,69.93
2023-04-15T04:20:50.576Z,70.10
2023-04-15T04:23:17.570Z,69.88
2023-04-15T04:25:44.575Z,70.13
2023-04-15T04:28:11.715Z,71.02
2023-04-15T04:30:40.509Z,71.27
2023-04-15T04:33:08.020Z,71.39
2023-04-15T04:35:37.901Z,71.19
2023-04-15T04:38:05.022Z,71.24
2023-04-15T04:40:34.215Z,71.21
2023-04-15T04:43:01.289Z,71.67
2023-04-15T04:45:28.377Z,71.50
2023-04-15T04:47:56.278Z,71.82
2023-04-15T04:50:23.609Z,71.64
2023-04-15T04:52:50.752Z,71.48
2023-04-15T04:55:17.974Z,71.54
2023-04-15T04:57:45.574Z,71.76
2023-04-15T05:00:14.146Z,71.97
2023-04-15T05:02:44.139Z,72.56
2023-04-15T05:05:12.201Z,73.07
2023-04-15T05:07:42.577Z,72.47
2023-04-15T05:10:10.176Z,73.19
2023-04-15T05:12:38.580Z,73.76
2023-04-15T05:15:07.263Z,73.55
2023-04-15T05:17:35.520Z,73.88
2023-04-15T05:20:04.076Z,74.77
2023-04-15T05:22:31.507Z,75.49
2023-04-15T05:24:58.666Z,75.19
2023-04-15T05:27:26.037Z,77.26
2023-04-15T05:29:53.067Z,76.68
2023-04-15T05:32:20.153Z,77.06
2023-04-15T05:34:47.284Z,76.74
2023-04-15T05:37:14.375Z,77.38
2023-04-15T05:39:42.311Z,77.74
2023-04-15T05:42:09.624Z,78.00
2023-04-15T05:44:37.243Z,77.87
2023-04-15T05:47:04.322Z,77.65
2023-04-15T05:49:31.389Z,77.63
2023-04-15T05:51:58.391Z,78.36
2023-04-15T05:54:27.926Z,78.03
2023-04-15T05:56:56.519Z,78.06
2023-04-15T05:59:23.607Z,78.57
2023-04-15T06:01:52.371Z,79.41
2023-04-15T06:04:19.835Z,78.95
2023-04-15T06:06:47.285Z,78.88
2023-04-15T06:09:14.372Z,78.36
2023-04-15T06:11:42.809Z,79.15
2023-04-15T06:14:10.657Z,79.05
2023-04-15T06:16:37.929Z,78.87
2023-04-15T06:19:05.086Z,78.52
2023-04-15T06:21:32.198Z,78.28
2023-04-15T06:24:01.632Z,79.36
2023-04-15T06:26:28.778Z,78.70
2023-04-15T06:28:55.843Z,79.00
2023-04-15T06:31:23.328Z,79.26
2023-04-15T06:33:50.744Z,79.66
2023-04-15T06:36:18.644Z,79.34
2023-04-15T06:38:45.738Z,79.37
2023-04-15T06:41:13.012Z,79.23
2023-04-15T06:43:40.395Z,79.02
2023-04-15T06:46:07.406Z,79.55
2023-04-15T06:48:34.483Z,79.48
2023-04-15T06:51:01.939Z,79.27
2023-04-15T06:53:35.646Z,79.38
2023-04-15T06:56:02.811Z,79.98
2023-04-15T06:58:29.975Z,80.44
2023-04-15T07:00:57.105Z,80.03
2023-04-15T07:03:24.136Z,79.55
2023-04-15T07:05:51.152Z,79.95
2023-04-15T07:08:18.996Z,79.76
2023-04-15T07:10:47.283Z,79.87
2023-04-15T07:13:14.496Z,79.07
2023-04-15T07:15:41.529Z,79.18
2023-04-15T07:18:09.662Z,78.85
2023-04-15T07:20:36.794Z,78.76
2023-04-15T07:23:03.773Z,78.51
2023-04-15T07:25:31.039Z,78.86
2023-04-15T07:27:58.330Z,78.54
2023-04-15T07:30:25.462Z,79.24
2023-04-15T07:32:52.911Z,78.88
2023-04-15T07:35:21.874Z,78.66
2023-04-15T07:37:49.381Z,78.43
2023-04-15T07:40:17.192Z,78.55
2023-04-15T07:42:44.956Z,78.81
2023-04-15T07:45:13.039Z,78.43
2023-04-15T07:47:40.968Z,77.97
2023-04-15T07:50:10.714Z,78.08
2023-04-15T07:52:40.576Z,77.96
2023-04-15T07:55:09.000Z,77.72
2023-04-15T07:57:36.897Z,77.56
2023-04-15T08:00:05.982Z,77.84
2023-04-15T08:02:40.758Z,77.51
2023-04-15T08:05:09.358Z,77.39
2023-04-15T08:07:39.901Z,77.07
2023-04-15T08:10:07.898Z,77.15
2023-04-15T08:12:35.663Z,76.61
2023-04-15T08:15:03.195Z,76.21
2023-04-15T08:17:30.273Z,76.75
2023-04-15T08:19:57.617Z,76.38
2023-04-15T08:22:25.079Z,75.76
2023-04-15T08:24:52.229Z,76.19
2023-04-15T08:27:19.537Z,74.90
2023-04-15T08:29:47.284Z,74.79
2023-04-15T08:32:15.092Z,74.71
2023-04-15T08:34:42.518Z,74.88
2023-04-15T08:37:10.850Z,74.37
2023-04-15T08:39:38.790Z,74.40
2023-04-15T08:42:12.710Z,73.42
2023-04-15T08:44:40.539Z,74.12
2023-04-15T08:47:09.074Z,74.00
2023-04-15T08:49:41.429Z,72.78
2023-04-15T08:52:09.393Z,72.69
2023-04-15T08:54:37.892Z,71.82
2023-04-15T08:57:05.550Z,71.78
2023-04-15T08:59:32.912Z,71.06
2023-04-15T09:01:59.956Z,70.97
2023-04-15T09:04:28.526Z,69.68
2023-04-15T09:06:55.632Z,70.40
2023-04-15T09:09:22.745Z,69.87
2023-04-15T09:11:51.486Z,69.32
2023-04-15T09:14:18.528Z,68.11
2023-04-15T09:17:05.485Z,68.74
2023-04-15T09:19:34.601Z,68.05
2023-04-15T09:22:02.863Z,67.37
2023-04-15T09:24:39.568Z,67.18
2023-04-15T09:27:08.374Z,66.97
2023-04-15T09:29:37.144Z,66.77
2023-04-15T09:32:16.175Z,66.66
2023-04-15T09:34:44.796Z,64.08
2023-04-15T09:37:28.588Z,63.16
2023-04-15T09:39:58.464Z,62.27
2023-04-15T09:42:26.920Z,63.08
2023-04-15T09:44:54.325Z,63.18
2023-04-15T09:47:29.410Z,63.11
2023-04-15T09:49:58.720Z,63.78
2023-04-15T09:52:26.165Z,63.80
2023-04-15T09:54:58.720Z,64.37
2023-04-15T09:57:25.902Z,63.20
2023-04-15T09:59:52.964Z,63.86
2023-04-15T10:02:23.725Z,63.40
2023-04-15T10:04:52.553Z,63.13
2023-04-15T10:07:22.619Z,63.15
2023-04-15T10:09:50.127Z,63.29
2023-04-15T10:12:19.404Z,62.81
2023-04-15T10:14:54.278Z,63.15
2023-04-15T10:17:23.635Z,63.09
2023-04-15T10:19:55.125Z,62.69
2023-04-15T10:22:27.337Z,62.33
2023-04-15T10:24:56.560Z,62.36
2023-04-15T10:27:24.587Z,62.48
2023-04-15T10:29:51.913Z,61.67
2023-04-15T10:32:24.531Z,62.22
2023-04-15T10:34:54.431Z,62.34
2023-04-15T10:37:33.706Z,62.03
2023-04-15T10:40:01.017Z,61.64
2023-04-15T10:42:35.469Z,61.29
2023-04-15T10:45:02.637Z,60.05
2023-04-15T10:47:29.759Z,59.90
2023-04-15T10:50:02.542Z,59.60
2023-04-15T10:52:30.154Z,59.59
2023-04-15T10:55:24.326Z,58.87
2023-04-15T10:57:59.131Z,56.91
2023-04-15T11:00:28.910Z,57.74
2023-04-15T11:03:06.543Z,57.74
2023-04-15T11:05:43.188Z,57.13
2023-04-15T11:08:11.410Z,57.38
2023-04-15T11:10:38.420Z,57.44
2023-04-15T11:13:17.330Z,57.52
2023-04-15T11:15:48.864Z,58.05
2023-04-15T11:18:23.658Z,57.19
2023-04-15T11:21:07.627Z,57.72
2023-04-15T11:23:48.845Z,53.26
2023-04-15T11:26:16.364Z,53.03
2023-04-15T11:28:45.799Z,52.22
2023-04-15T11:31:16.513Z,53.30
2023-04-15T11:33:59.514Z,53.60
2023-04-15T11:36:29.399Z,53.64
2023-04-15T11:38:59.910Z,54.18
2023-04-15T11:41:27.117Z,54.54
2023-04-15T11:43:54.150Z,54.69
2023-04-15T11:46:22.999Z,55.41
2023-04-15T11:48:50.266Z,53.18
2023-04-15T11:51:17.364Z,51.97
2023-04-15T11:53:47.667Z,51.95
2023-04-15T11:56:22.436Z,52.40
2023-04-15T11:58:54.368Z,53.14
2023-04-15T12:01:21.679Z,51.75
2023-04-15T12:03:50.352Z,52.13
2023-04-15T12:06:23.613Z,53.61
2023-04-15T12:09:04.832Z,53.95
2023-04-15T12:11:44.603Z,51.90
2023-04-15T12:14:33.557Z,51.88
2023-04-15T12:17:06.071Z,52.38
2023-04-15T12:19:38.551Z,52.63
2023-04-15T12:22:14.321Z,52.17
2023-04-15T12:24:53.110Z,50.48
2023-04-15T12:27:21.297Z,50.89
2023-04-15T12:29:48.467Z,49.29
2023-04-15T12:32:17.268Z,48.68
2023-04-15T12:34:58.278Z,49.47
2023-04-15T12:37:26.219Z,50.27
2023-04-15T12:39:54.119Z,50.68
2023-04-15T12:42:22.549Z,51.52
2023-04-15T12:44:49.952Z,51.19
2023-04-15T12:47:17.194Z,51.91
2023-04-15T12:49:44.229Z,51.03
2023-04-15T12:52:11.355Z,52.47
2023-04-15T12:54:39.365Z,52.19
2023-04-15T12:57:07.464Z,50.80
2023-04-15T12:59:35.772Z,49.57
2023-04-15T13:02:03.616Z,49.44
2023-04-15T13:04:31.581Z,49.87
2023-04-15T13:06:58.990Z,50.88
2023-04-15T13:09:26.082Z,51.48
2023-04-15T13:11:54.640Z,50.66
2023-04-15T13:14:22.067Z,49.41
2023-04-15T13:16:49.205Z,49.67
2023-04-15T13:19:16.410Z,50.01
2023-04-15T13:21:47.092Z,50.04
2023-04-15T13:24:14.018Z,49.84
2023-04-15T13:26:41.082Z,46.20
2023-04-15T13:29:08.192Z,47.31
2023-04-15T13:31:35.643Z,47.44
2023-04-15T13:36:29.813Z,47.53
2023-04-15T13:38:57.838Z,47.63
2023-04-15T13:41:24.987Z,47.36
2023-04-15T13:43:52.472Z,47.36
2023-04-15T13:46:19.944Z,47.18
2023-04-15T13:48:47.182Z,47.00
2023-04-15T13:51:14.108Z,46.77
2023-04-15T13:53:41.086Z,46.73
2023-04-15T13:56:08.888Z,47.40
2023-04-15T13:58:37.756Z,46.44
2023-04-15T14:01:06.986Z,46.75
2023-04-15T14:03:36.990Z,46.12
2023-04-15T14:06:05.907Z,45.89
2023-04-15T14:08:33.230Z,44.82
2023-04-15T14:11:00.808Z,44.60
2023-04-15T14:13:28.201Z,44.06
2023-04-15T14:15:56.954Z,43.74
2023-04-15T14:18:23.984Z,44.01
2023-04-15T14:20:51.154Z,43.84
2023-04-15T14:23:19.306Z,43.33
2023-04-15T14:25:48.389Z,44.64
2023-04-15T14:28:15.856Z,45.50
2023-04-15T14:30:42.946Z,44.86
2023-04-15T14:33:10.028Z,44.54
2023-04-15T14:35:37.103Z,45.31
2023-04-15T14:38:05.967Z,43.66
2023-04-15T14:40:33.843Z,43.77
2023-04-15T14:43:00.946Z,44.08
2023-04-15T14:45:28.110Z,43.92
2023-04-15T14:47:55.298Z,43.47
2023-04-15T14:50:22.517Z,43.04
2023-04-15T14:52:49.504Z,41.56
2023-04-15T14:55:17.102Z,41.28
2023-04-15T14:57:44.079Z,41.30
2023-04-15T15:00:14.477Z,42.49
2023-04-15T15:02:43.450Z,42.68
2023-04-15T15:05:12.013Z,41.79
2023-04-15T15:07:43.603Z,41.93
2023-04-15T15:10:10.948Z,41.81
2023-04-15T15:12:38.046Z,42.21
2023-04-15T15:15:15.676Z,42.61
2023-04-15T15:17:47.254Z,43.90
2023-04-15T15:20:14.337Z,43.63
2023-04-15T15:22:41.299Z,43.27
2023-04-15T15:25:08.526Z,43.06
2023-04-15T15:27:38.161Z,42.70
2023-04-15T15:30:06.958Z,42.75
2023-04-15T15:32:34.365Z,42.81
2023-04-15T15:35:01.650Z,42.94
2023-04-15T15:37:31.497Z,42.20
2023-04-15T15:39:58.978Z,41.56
2023-04-15T15:42:26.154Z,41.92
2023-04-15T15:44:53.299Z,41.70
2023-04-15T15:47:22.186Z,41.41
2023-04-15T15:49:49.483Z,40.99
2023-04-15T15:52:16.472Z,40.82
2023-04-15T15:54:43.740Z,41.44
2023-04-15T15:57:11.306Z,41.97
2023-04-15T15:59:44.019Z,42.96
2023-04-15T16:02:12.769Z,42.35
2023-04-15T16:04:40.761Z,42.65
2023-04-15T16:07:07.921Z,43.24
2023-04-15T16:09:35.432Z,43.84
2023-04-15T16:12:04.208Z,43.76
2023-04-15T16:14:32.030Z,43.73
2023-04-15T16:16:59.298Z,44.10
2023-04-15T16:19:26.401Z,43.82
2023-04-15T16:21:54.183Z,44.06
2023-04-15T16:24:21.326Z,44.51
2023-04-15T16:26:48.357Z,45.19
2023-04-15T16:29:15.663Z,44.24
2023-04-15T16:31:42.733Z,43.36
2023-04-15T16:34:10.275Z,44.11
2023-04-15T16:36:40.397Z,44.11
2023-04-15T16:39:07.908Z,44.17
2023-04-15T16:41:35.404Z,44.52
2023-04-15T16:44:03.400Z,44.27
2023-04-15T16:46:31.134Z,44.39
2023-04-15T16:48:58.426Z,43.81
2023-04-15T16:51:26.016Z,43.79
2023-04-15T16:53:53.566Z,42.75
2023-04-15T16:56:22.142Z,42.75
2023-04-15T16:58:49.630Z,42.66
2023-04-15T17:01:16.991Z,43.04
2023-04-15T17:03:45.207Z,43.75
2023-04-15T17:06:12.798Z,42.16
2023-04-15T17:08:40.490Z,42.73
2023-04-15T17:11:07.989Z,43.22
2023-04-15T17:13:35.166Z,42.85
2023-04-15T17:16:03.067Z,43.53
2023-04-15T17:18:38.935Z,43.76
2023-04-15T17:21:17.202Z,42.85
2023-04-15T17:23:47.114Z,43.30
2023-04-15T17:26:15.581Z,42.93
2023-04-15T17:28:43.174Z,42.42
2023-04-15T17:31:14.164Z,42.48
2023-04-15T17:34:09.374Z,43.74
2023-04-15T17:36:37.272Z,44.76
2023-04-15T17:39:04.805Z,44.68
2023-04-15T17:41:52.040Z,44.84
2023-04-15T17:44:19.414Z,45.76
2023-04-15T17:47:07.258Z,45.84
2023-04-15T17:49:54.165Z,46.30
2023-04-15T17:52:41.668Z,47.87
2023-04-15T17:55:29.152Z,50.34
2023-04-15T17:58:16.282Z,55.01
2023-04-15T18:01:03.363Z,56.12
2023-04-15T18:03:50.651Z,58.09
2023-04-15T18:06:38.049Z,60.11
2023-04-15T18:09:25.368Z,59.28
2023-04-15T18:12:12.328Z,58.29
2023-04-15T18:14:59.847Z,58.47
2023-04-15T18:17:47.966Z,58.11
2023-04-15T18:20:15.774Z,58.09
2023-04-15T18:22:45.337Z,57.83
2023-04-15T18:25:12.245Z,58.13
2023-04-15T18:27:39.433Z,58.25
2023-04-15T18:30:09.819Z,57.73
2023-04-15T18:32:36.962Z,57.56
2023-04-15T18:35:06.015Z,57.53
2023-04-15T18:37:33.490Z,58.64
2023-04-15T18:40:01.445Z,57.88
2023-04-15T18:42:28.374Z,58.23
2023-04-15T18:44:55.423Z,58.67
2023-04-15T18:47:23.073Z,57.98
2023-04-15T18:49:50.896Z,58.39
2023-04-15T18:52:17.926Z,58.56
2023-04-15T18:54:44.938Z,58.98
2023-04-15T18:57:12.145Z,58.33
2023-04-15T18:59:39.118Z,58.68
2023-04-15T19:02:07.553Z,58.78
2023-04-15T19:04:35.028Z,59.26
2023-04-15T19:07:02.259Z,59.33
2023-04-15T19:09:29.962Z,58.88
2023-04-15T19:11:57.674Z,59.13
2023-04-15T19:14:24.704Z,59.14
2023-04-15T19:16:52.447Z,59.29
2023-04-15T19:19:19.974Z,58.92
2023-04-15T19:21:49.854Z,59.43
2023-04-15T19:24:18.193Z,58.74
2023-04-15T19:26:49.870Z,58.91
2023-04-15T19:29:17.738Z,59.55
2023-04-15T19:31:45.381Z,59.67
2023-04-15T19:34:12.667Z,59.45
2023-04-15T19:36:39.740Z,59.70
2023-04-15T19:39:07.511Z,60.29
2023-04-15T19:41:34.652Z,60.59
2023-04-15T19:44:03.185Z,60.49
2023-04-15T19:46:30.770Z,60.42
2023-04-15T19:48:58.107Z,60.23
2023-04-15T19:51:26.141Z,61.03
2023-04-15T19:53:56.296Z,60.81
2023-04-15T19:56:24.116Z,60.85
2023-04-15T19:58:53.088Z,61.12
2023-04-15T20:01:20.648Z,61.35
2023-04-15T20:03:48.590Z,61.65
2023-04-15T20:06:15.956Z,61.73
2023-04-15T20:08:43.219Z,61.57
2023-04-15T20:11:11.227Z,61.68
2023-04-15T20:13:43.424Z,61.75
2023-04-15T20:16:11.963Z,61.27
2023-04-15T20:18:39.219Z,61.42
2023-04-15T20:21:06.224Z,62.26
2023-04-15T20:23:35.128Z,62.25
2023-04-15T20:26:02.064Z,61.99
2023-04-15T20:28:29.049Z,62.65
2023-04-15T20:30:56.508Z,62.09
2023-04-15T20:33:25.860Z,62.37
2023-04-15T20:35:53.905Z,62.50
2023-04-15T20:38:21.908Z,63.33
2023-04-15T20:40:48.948Z,63.19
2023-04-15T20:43:16.000Z,63.09
2023-04-15T20:45:42.992Z,63.53
2023-04-15T20:48:10.937Z,63.12
2023-04-15T20:50:38.957Z,63.19
2023-04-15T20:53:06.089Z,62.27
2023-04-15T20:55:33.027Z,62.44
2023-04-15T20:58:00.050Z,62.17
2023-04-15T21:00:27.193Z,62.58
2023-04-15T21:02:54.340Z,62.27
2023-04-15T21:05:21.632Z,61.59
2023-04-15T21:07:48.598Z,61.63
2023-04-15T21:10:15.832Z,61.75
2023-04-15T21:12:43.010Z,61.26
2023-04-15T21:15:10.774Z,61.10
2023-04-15T21:17:39.114Z,60.76
2023-04-15T21:20:07.960Z,60.57
2023-04-15T21:22:35.273Z,61.22
2023-04-15T21:25:03.264Z,61.78
2023-04-15T21:27:30.587Z,61.14
2023-04-15T21:29:57.545Z,60.86
2023-04-15T21:32:24.569Z,61.17
2023-04-15T21:34:51.738Z,60.74
2023-04-15T21:37:18.819Z,59.98
2023-04-15T21:39:45.857Z,60.44
2023-04-15T21:42:12.883Z,60.41
2023-04-15T21:44:39.950Z,60.24
2023-04-15T21:47:07.005Z,59.93
2023-04-15T21:49:34.076Z,59.95
2023-04-15T21:52:01.480Z,59.86
2023-04-15T21:54:28.579Z,59.69
2023-04-15T21:56:57.012Z,59.89
2023-04-15T21:59:25.316Z,58.51
2023-04-15T22:01:52.480Z,59.44
2023-04-15T22:04:19.688Z,59.85
2023-04-15T22:06:47.121Z,59.66
2023-04-15T22:09:14.579Z,59.31
2023-04-15T22:11:41.725Z,59.58
2023-04-15T22:14:09.151Z,59.36
2023-04-15T22:16:36.311Z,59.75
2023-04-15T22:19:03.504Z,59.61
2023-04-15T22:21:30.516Z,60.07
2023-04-15T22:24:33.539Z,59.22
2023-04-15T22:26:44.663Z,60.14
2023-04-15T22:29:12.821Z,59.75
2023-04-15T22:31:39.930Z,60.03
2023-04-15T22:34:06.936Z,59.38
2023-04-15T22:36:34.055Z,59.68
2023-04-15T22:39:01.075Z,60.25
2023-04-15T22:41:28.288Z,60.15
2023-04-15T22:43:55.551Z,60.36
2023-04-15T22:46:22.609Z,59.75
2023-04-15T22:48:49.670Z,59.67
2023-04-15T22:51:22.710Z,60.19
2023-04-15T22:53:50.709Z,59.63
2023-04-15T22:56:21.925Z,59.64
2023-04-15T22:58:49.986Z,60.53
2023-04-15T23:01:18.239Z,59.51
2023-04-15T23:03:57.487Z,60.04
2023-04-15T23:06:32.894Z,59.89
2023-04-15T23:09:00.020Z,59.17
2023-04-15T23:11:27.460Z,59.18
2023-04-15T23:13:54.466Z,59.54
2023-04-15T23:16:22.156Z,59.60
2023-04-15T23:18:49.208Z,59.81
2023-04-15T23:21:17.026Z,59.90
2023-04-15T23:23:44.269Z,59.60
2023-04-15T23:26:11.574Z,59.37
2023-04-15T23:28:38.639Z,59.28
2023-04-15T23:31:06.924Z,59.66
2023-04-15T23:33:34.447Z,60.08
2023-04-15T23:36:01.699Z,60.16
2023-04-15T23:38:28.648Z,60.31
2023-04-15T23:40:55.572Z,60.43
2023-04-15T23:43:22.574Z,60.53
2023-04-15T23:45:49.576Z,60.76
2023-04-15T23:48:16.948Z,60.22
2023-04-15T23:50:44.001Z,60.29
2023-04-15T23:53:11.101Z,60.06
2023-04-15T23:55:38.158Z,60.36
2023-04-15T23:58:05.083Z,60.99
